createdAt,value
2023-12-16T00:00:24.330Z,5.2
2023-12-16T00:03:24.399Z,5.2
2023-12-16T00:06:24.335Z,5.2
2023-12-16T00:09:24.333Z,5.2
2023-12-16T00:12:24.319Z,5.2
2023-12-16T00:15:24.339Z,5.2
2023-12-16T00:18:24.387Z,5.3
2023-12-16T00:21:24.347Z,5.2
2023-12-16T00:24:24.344Z,5.2
2023-12-16T00:27:24.349Z,5.2
2023-12-16T00:30:24.353Z,5.3
2023-12-16T00:33:24.392Z,5.3
2023-12-16T00:36:24.364Z,5.3
2023-12-16T00:39:24.348Z,5.3
2023-12-16T00:42:24.367Z,5.3
2023-12-16T00:45:24.375Z,5.3
2023-12-16T00:48:24.440Z,5.3
2023-12-16T00:51:24.374Z,5.3
2023-12-16T00:54:24.382Z,5.3
2023-12-16T00:57:24.376Z,5.3
2023-12-16T01:00:24.379Z,5.3
2023-12-16T01:03:24.438Z,5.3
2023-12-16T01:06:24.376Z,5.3
2023-12-16T01:09:24.388Z,5.3
2023-12-16T01:12:24.385Z,5.3
2023-12-16T01:15:24.420Z,5.3
2023-12-16T01:18:24.420Z,5.3
2023-12-16T01:21:24.393Z,5.3
2023-12-16T01:24:24.393Z,5.3
2023-12-16T01:27:24.399Z,5.3
2023-12-16T01:30:24.408Z,5.3
2023-12-16T01:33:24.416Z,5.3
2023-12-16T01:36:24.410Z,5.3
2023-12-16T01:39:24.410Z,5.3
2023-12-16T01:42:24.422Z,5.3
2023-12-16T01:45:24.423Z,5.3
2023-12-16T01:48:24.485Z,5.3
2023-12-16T01:51:24.423Z,5.3
2023-12-16T01:54:24.425Z,5.3
2023-12-16T01:57:24.428Z,5.3
2023-12-16T02:00:24.434Z,5.3
2023-12-16T02:03:24.431Z,5.3
2023-12-16T02:06:24.519Z,5.3
2023-12-16T02:09:24.430Z,5.3
2023-12-16T02:12:24.442Z,5.3
2023-12-16T02:15:24.435Z,5.3
2023-12-16T02:18:24.476Z,5.3
2023-12-16T02:21:24.440Z,5.3
2023-12-16T02:24:24.452Z,5.3
2023-12-16T02:27:24.452Z,5.3
2023-12-16T02:30:24.486Z,5.3
2023-12-16T02:33:24.509Z,5.3
2023-12-16T02:36:24.456Z,5.3
2023-12-16T02:39:24.457Z,5.3
2023-12-16T02:42:24.468Z,5.3
2023-12-16T02:45:24.466Z,5.3
2023-12-16T02:48:24.545Z,5.3
2023-12-16T02:51:24.470Z,5.3
2023-12-16T02:54:24.469Z,5.3
2023-12-16T02:57:24.479Z,5.3
2023-12-16T03:00:24.474Z,5.3
2023-12-16T03:03:24.533Z,5.4
2023-12-16T03:06:24.491Z,5.4
2023-12-16T03:09:24.481Z,5.3
2023-12-16T03:12:24.484Z,5.3
2023-12-16T03:15:24.497Z,5.3
2023-12-16T03:18:24.501Z,5.3
2023-12-16T03:21:24.494Z,5.4
2023-12-16T03:24:24.498Z,5.3
2023-12-16T03:27:24.503Z,5.3
2023-12-16T03:30:24.530Z,5.3
2023-12-16T03:33:24.600Z,5.4
2023-12-16T03:36:24.519Z,5.3
2023-12-16T03:39:24.521Z,5.3
2023-12-16T03:42:24.522Z,5.4
2023-12-16T03:45:24.530Z,5.4
2023-12-16T03:48:24.598Z,5.4
2023-12-16T03:51:24.545Z,5.4
2023-12-16T03:54:24.530Z,5.4
2023-12-16T03:57:24.528Z,5.4
2023-12-16T04:00:24.539Z,5.4
2023-12-16T04:03:24.553Z,5.4
2023-12-16T04:06:24.552Z,5.4
2023-12-16T04:09:24.555Z,5.4
2023-12-16T04:12:24.553Z,5.4
2023-12-16T04:15:24.555Z,5.4
2023-12-16T04:18:24.633Z,5.4
2023-12-16T04:21:24.572Z,5.4
2023-12-16T04:24:24.578Z,5.4
2023-12-16T04:27:24.575Z,5.4
2023-12-16T04:30:24.662Z,5.4
2023-12-16T04:33:24.612Z,5.4
2023-12-16T04:36:24.601Z,5.4
2023-12-16T04:39:24.604Z,5.4
2023-12-16T04:42:24.599Z,5.4
2023-12-16T04:45:24.607Z,5.4
2023-12-16T04:48:24.644Z,5.4
2023-12-16T04:51:24.608Z,5.4
2023-12-16T04:54:24.615Z,5.4
2023-12-16T04:57:24.617Z,5.4
2023-12-16T05:00:24.612Z,5.4
2023-12-16T05:03:24.644Z,5.4
2023-12-16T05:06:24.635Z,5.4
2023-12-16T05:09:24.633Z,5.4
2023-12-16T05:12:34.541Z,5.4
2023-12-16T05:15:24.639Z,5.4
2023-12-16T05:18:24.715Z,5.4
2023-12-16T05:21:24.661Z,5.4
2023-12-16T05:24:24.652Z,5.4
2023-12-16T05:27:24.658Z,5.4
2023-12-16T05:30:24.675Z,5.4
2023-12-16T05:33:24.701Z,5.4
2023-12-16T05:36:24.668Z,5.4
2023-12-16T05:39:24.661Z,5.4
2023-12-16T05:42:24.676Z,5.4
2023-12-16T05:45:24.672Z,5.4
2023-12-16T05:48:24.706Z,5.4
2023-12-16T05:51:24.681Z,5.4
2023-12-16T05:54:24.691Z,5.4
2023-12-16T05:57:24.686Z,5.4
2023-12-16T06:00:24.691Z,5.4
2023-12-16T06:03:24.683Z,5.4
2023-12-16T06:06:24.686Z,5.4
2023-12-16T06:09:24.695Z,5.4
2023-12-16T06:12:24.700Z,5.4
2023-12-16T06:15:24.697Z,5.4
2023-12-16T06:18:24.761Z,5.4
2023-12-16T06:21:24.711Z,5.4
2023-12-16T06:24:24.733Z,5.4
2023-12-16T06:27:24.723Z,5.4
2023-12-16T06:30:24.763Z,5.4
2023-12-16T06:33:24.734Z,5.4
2023-12-16T06:36:24.733Z,5.4
2023-12-16T06:39:24.726Z,5.4
2023-12-16T06:42:24.738Z,5.4
2023-12-16T06:45:24.756Z,5.4
2023-12-16T06:48:24.839Z,5.4
2023-12-16T06:51:24.746Z,5.4
2023-12-16T06:54:24.750Z,5.4
2023-12-16T06:57:24.751Z,5.4
2023-12-16T07:00:24.760Z,5.4
2023-12-16T07:03:24.774Z,5.4
2023-12-16T07:06:24.763Z,5.4
2023-12-16T07:09:24.781Z,5.4
2023-12-16T07:12:24.772Z,5.4
2023-12-16T07:15:24.781Z,5.4
2023-12-16T07:18:24.832Z,5.4
2023-12-16T07:21:24.793Z,5.4
2023-12-16T07:24:24.797Z,5.4
2023-12-16T07:27:24.797Z,5.4
2023-12-16T07:30:24.828Z,5.4
2023-12-16T07:33:24.865Z,5.4
2023-12-16T07:36:24.817Z,5.4
2023-12-16T07:39:24.810Z,5.4
2023-12-16T07:42:24.805Z,5.4
2023-12-16T07:45:24.813Z,5.4
2023-12-16T07:48:24.877Z,5.4
2023-12-16T07:51:24.822Z,5.4
2023-12-16T07:54:24.826Z,5.4
2023-12-16T07:57:24.841Z,5.4
2023-12-16T08:00:24.841Z,5.4
2023-12-16T08:03:24.898Z,5.4
2023-12-16T08:06:24.865Z,5.4
2023-12-16T08:09:24.847Z,5.4
2023-12-16T08:12:24.844Z,5.4
2023-12-16T08:15:24.857Z,5.4
2023-12-16T08:18:24.910Z,5.4
2023-12-16T08:21:24.873Z,5.4
2023-12-16T08:24:24.864Z,5.4
2023-12-16T08:27:24.876Z,5.4
2023-12-16T08:30:24.883Z,5.4
2023-12-16T08:33:24.886Z,5.4
2023-12-16T08:36:24.886Z,5.4
2023-12-16T08:39:24.888Z,5.4
2023-12-16T08:42:24.892Z,5.4
2023-12-16T08:45:24.895Z,5.4
2023-12-16T08:48:24.906Z,5.4
2023-12-16T08:51:24.908Z,5.4
2023-12-16T08:54:24.913Z,5.4
2023-12-16T08:57:24.921Z,5.4
2023-12-16T09:00:24.924Z,5.4
2023-12-16T09:03:24.942Z,5.4
2023-12-16T09:06:24.932Z,5.4
2023-12-16T09:09:24.923Z,5.4
2023-12-16T09:12:24.947Z,5.4
2023-12-16T09:15:24.958Z,5.4
2023-12-16T09:18:25.035Z,5.4
2023-12-16T09:21:24.950Z,5.4
2023-12-16T09:24:24.965Z,5.4
2023-12-16T09:27:24.955Z,5.4
2023-12-16T09:30:24.996Z,5.4
2023-12-16T09:33:25.075Z,5.4
2023-12-16T09:36:24.986Z,5.4
2023-12-16T09:39:24.993Z,5.4
2023-12-16T09:42:25.008Z,5.4
2023-12-16T09:45:25.013Z,5.4
2023-12-16T09:48:25.042Z,5.4
2023-12-16T09:51:25.020Z,5.4
2023-12-16T09:54:25.014Z,5.4
2023-12-16T09:57:25.030Z,5.4
2023-12-16T10:00:25.035Z,5.4
2023-12-16T10:03:25.043Z,5.4
2023-12-16T10:06:25.052Z,5.4
2023-12-16T10:09:25.052Z,5.4
2023-12-16T10:12:25.062Z,5.4
2023-12-16T10:15:25.096Z,5.4
2023-12-16T10:18:25.152Z,5.4
2023-12-16T10:21:25.530Z,5.4
2023-12-16T10:24:25.080Z,5.4
2023-12-16T10:27:25.084Z,5.4
2023-12-16T10:30:25.110Z,5.4
2023-12-16T10:33:25.154Z,5.4
2023-12-16T10:36:25.122Z,5.4
2023-12-16T10:39:25.111Z,5.4
2023-12-16T10:42:25.108Z,5.4
2023-12-16T10:45:25.137Z,5.4
2023-12-16T10:48:25.188Z,5.4
2023-12-16T10:51:25.135Z,5.4
2023-12-16T10:54:25.139Z,5.4
2023-12-16T10:57:25.150Z,5.4
2023-12-16T11:00:25.221Z,5.4
2023-12-16T11:03:25.271Z,5.4
2023-12-16T11:06:25.177Z,5.4
2023-12-16T11:09:25.191Z,5.4
2023-12-16T11:12:25.250Z,5.4
2023-12-16T11:15:25.188Z,5.4
2023-12-16T11:18:25.207Z,5.4
2023-12-16T11:21:25.202Z,5.4
2023-12-16T11:24:25.215Z,5.4
2023-12-16T11:27:25.223Z,5.4
2023-12-16T11:30:25.363Z,5.4
2023-12-16T11:33:25.297Z,5.4
2023-12-16T11:36:25.243Z,5.4
2023-12-16T11:39:25.252Z,5.4
2023-12-16T11:42:25.256Z,5.4
2023-12-16T11:45:25.260Z,5.4
2023-12-16T11:48:25.305Z,5.4
2023-12-16T11:51:25.276Z,5.4
2023-12-16T11:54:25.289Z,5.4
2023-12-16T11:57:26.325Z,5.4
2023-12-16T12:00:25.306Z,5.4
2023-12-16T12:03:25.306Z,5.4
2023-12-16T12:06:25.348Z,5.4
2023-12-16T12:09:25.327Z,5.4
2023-12-16T12:12:25.337Z,5.4
2023-12-16T12:15:25.355Z,5.4
2023-12-16T12:18:25.434Z,5.4
2023-12-16T12:21:25.362Z,5.5
2023-12-16T12:24:25.357Z,5.5
2023-12-16T12:27:25.691Z,5.5
2023-12-16T12:30:25.420Z,5.5
2023-12-16T12:33:25.458Z,5.5
2023-12-16T12:36:25.392Z,5.4
2023-12-16T12:39:25.400Z,5.5
2023-12-16T12:42:25.406Z,5.5
2023-12-16T12:45:25.444Z,5.5
2023-12-16T12:48:25.475Z,5.5
2023-12-16T12:51:25.440Z,5.5
2023-12-16T12:54:25.453Z,5.5
2023-12-16T12:57:25.471Z,5.5
2023-12-16T13:00:25.479Z,5.5
2023-12-16T13:03:25.513Z,5.5
2023-12-16T13:06:25.601Z,5.5
2023-12-16T13:09:25.498Z,5.5
2023-12-16T13:12:25.510Z,5.5
2023-12-16T13:15:25.517Z,5.5
2023-12-16T13:18:26.601Z,5.5
2023-12-16T13:21:25.564Z,5.5
2023-12-16T13:24:25.584Z,5.5
2023-12-16T13:27:25.549Z,5.5
2023-12-16T13:30:25.612Z,5.5
2023-12-16T13:33:25.685Z,5.5
2023-12-16T13:36:31.974Z,5.5
2023-12-16T13:39:25.594Z,5.5
2023-12-16T13:42:25.605Z,5.5
2023-12-16T13:45:25.615Z,5.5
2023-12-16T13:48:25.726Z,5.5
2023-12-16T13:51:25.651Z,5.5
2023-12-16T13:54:25.674Z,5.5
2023-12-16T13:57:25.646Z,5.5
2023-12-16T14:00:25.670Z,5.5
2023-12-16T14:03:25.734Z,5.5
2023-12-16T14:06:25.777Z,5.5
2023-12-16T14:09:25.722Z,5.6
2023-12-16T14:12:25.711Z,5.6
2023-12-16T14:15:25.704Z,5.6
2023-12-16T14:18:25.824Z,5.6
2023-12-16T14:21:25.710Z,5.6
2023-12-16T14:24:25.736Z,5.6
2023-12-16T14:27:25.711Z,5.6
2023-12-16T14:30:25.745Z,5.6
2023-12-16T14:33:25.806Z,5.6
2023-12-16T14:36:25.713Z,5.6
2023-12-16T14:39:25.736Z,5.6
2023-12-16T14:42:25.718Z,5.6
2023-12-16T14:45:25.724Z,5.6
2023-12-16T14:48:25.901Z,5.6
2023-12-16T14:51:25.726Z,5.6
2023-12-16T14:54:25.747Z,5.6
2023-12-16T14:57:25.735Z,5.6
2023-12-16T15:00:25.719Z,5.6
2023-12-16T15:03:25.771Z,5.6
2023-12-16T15:06:29.898Z,5.6
2023-12-16T15:09:25.753Z,5.6
2023-12-16T15:12:25.741Z,5.6
2023-12-16T15:15:25.732Z,5.6
2023-12-16T15:18:25.779Z,5.6
2023-12-16T15:21:25.731Z,5.6
2023-12-16T15:24:25.751Z,5.6
2023-12-16T15:27:25.735Z,5.6
2023-12-16T15:30:25.765Z,5.6
2023-12-16T15:33:25.796Z,5.6
2023-12-16T15:36:25.740Z,5.6
2023-12-16T15:39:25.785Z,5.6
2023-12-16T15:42:25.742Z,5.6
2023-12-16T15:45:25.758Z,5.6
2023-12-16T15:48:25.843Z,5.6
2023-12-16T15:51:25.742Z,5.6
2023-12-16T15:54:25.755Z,5.6
2023-12-16T15:57:25.744Z,5.6
2023-12-16T16:00:25.741Z,5.6
2023-12-16T16:03:25.827Z,5.6
2023-12-16T16:06:25.785Z,5.6
2023-12-16T16:09:25.764Z,5.6
2023-12-16T16:12:25.752Z,5.6
2023-12-16T16:15:25.994Z,5.6
2023-12-16T16:18:25.859Z,5.6
2023-12-16T16:21:25.842Z,5.6
2023-12-16T16:24:25.846Z,5.6
2023-12-16T16:27:25.807Z,5.6
2023-12-16T16:30:25.916Z,5.6
2023-12-16T16:33:25.912Z,5.6
2023-12-16T16:36:25.775Z,5.6
2023-12-16T16:39:25.787Z,5.6
2023-12-16T16:42:25.788Z,5.6
2023-12-16T16:45:25.783Z,5.6
2023-12-16T16:48:25.851Z,5.6
2023-12-16T16:51:25.788Z,5.6
2023-12-16T16:54:25.808Z,5.7
2023-12-16T16:57:25.793Z,5.7
2023-12-16T17:00:25.854Z,5.6
2023-12-16T17:03:25.928Z,5.7
2023-12-16T17:06:25.819Z,5.6
2023-12-16T17:09:25.823Z,5.7
2023-12-16T17:12:25.807Z,5.7
2023-12-16T17:15:25.835Z,5.7
2023-12-16T17:18:25.896Z,5.7
2023-12-16T17:21:25.834Z,5.7
2023-12-16T17:24:25.840Z,5.7
2023-12-16T17:27:25.848Z,5.7
2023-12-16T17:30:25.911Z,5.7
2023-12-16T17:33:25.890Z,5.7
2023-12-16T17:36:25.852Z,5.7
2023-12-16T17:39:25.868Z,5.7
2023-12-16T17:42:25.863Z,5.7
2023-12-16T17:45:25.863Z,5.7
2023-12-16T17:48:25.942Z,5.7
2023-12-16T17:51:25.876Z,5.7
2023-12-16T17:54:25.893Z,5.7
2023-12-16T17:57:25.898Z,5.7
2023-12-16T18:00:25.972Z,5.7
2023-12-16T18:03:25.965Z,5.7
2023-12-16T18:06:25.954Z,5.7
2023-12-16T18:09:25.955Z,5.7
2023-12-16T18:12:26.064Z,5.7
2023-12-16T18:15:26.005Z,5.7
2023-12-16T18:18:26.051Z,5.7
2023-12-16T18:21:25.983Z,5.7
2023-12-16T18:24:25.982Z,5.7
2023-12-16T18:27:26.000Z,5.7
2023-12-16T18:30:26.087Z,5.7
2023-12-16T18:33:26.120Z,5.7
2023-12-16T18:36:26.003Z,5.7
2023-12-16T18:39:26.021Z,5.7
2023-12-16T18:42:26.015Z,5.7
2023-12-16T18:45:26.018Z,5.7
2023-12-16T18:48:26.190Z,5.7
2023-12-16T18:51:26.702Z,5.7
2023-12-16T18:54:26.033Z,5.7
2023-12-16T18:57:26.031Z,5.7
2023-12-16T19:00:26.150Z,5.7
2023-12-16T19:03:26.083Z,5.7
2023-12-16T19:06:26.049Z,5.7
2023-12-16T19:09:26.036Z,5.7
2023-12-16T19:12:26.042Z,5.7
2023-12-16T19:15:26.046Z,5.7
2023-12-16T19:18:26.132Z,5.7
2023-12-16T19:21:26.054Z,5.7
2023-12-16T19:24:26.046Z,5.7
2023-12-16T19:27:26.046Z,5.7
2023-12-16T19:30:26.143Z,5.7
2023-12-16T19:33:26.149Z,5.7
2023-12-16T19:36:26.059Z,5.7
2023-12-16T19:39:26.060Z,5.7
2023-12-16T19:42:26.061Z,5.7
2023-12-16T19:45:26.060Z,5.7
2023-12-16T19:48:26.097Z,5.7
2023-12-16T19:51:26.098Z,5.7
2023-12-16T19:54:26.059Z,5.7
2023-12-16T19:57:26.075Z,5.7
2023-12-16T20:00:26.092Z,5.7
2023-12-16T20:03:26.103Z,5.7
2023-12-16T20:06:26.149Z,5.7
2023-12-16T20:09:26.074Z,5.7
2023-12-16T20:12:26.085Z,5.7
2023-12-16T20:15:26.103Z,5.7
2023-12-16T20:18:26.214Z,5.7
2023-12-16T20:21:26.074Z,5.7
2023-12-16T20:24:26.075Z,5.7
2023-12-16T20:27:26.138Z,5.7
2023-12-16T20:30:26.197Z,5.7
2023-12-16T20:33:26.154Z,5.7
2023-12-16T20:36:26.105Z,5.7
2023-12-16T20:39:26.147Z,5.7
2023-12-16T20:42:26.108Z,5.8
2023-12-16T20:45:26.111Z,5.8
2023-12-16T20:48:26.236Z,5.8
2023-12-16T20:51:26.090Z,5.8
2023-12-16T20:54:26.092Z,5.8
2023-12-16T20:57:26.093Z,5.8
2023-12-16T21:00:26.526Z,5.8
2023-12-16T21:03:26.128Z,5.8
2023-12-16T21:06:26.122Z,5.8
2023-12-16T21:09:26.096Z,5.8
2023-12-16T21:12:26.118Z,5.8
2023-12-16T21:15:26.108Z,5.8
2023-12-16T21:18:26.187Z,5.8
2023-12-16T21:21:26.098Z,5.8
2023-12-16T21:24:26.103Z,5.8
2023-12-16T21:27:26.107Z,5.8
2023-12-16T21:30:26.185Z,5.8
2023-12-16T21:33:26.196Z,5.8
2023-12-16T21:36:26.121Z,5.8
2023-12-16T21:39:26.245Z,5.8
2023-12-16T21:42:26.113Z,5.8
2023-12-16T21:45:26.164Z,5.8
2023-12-16T21:48:26.298Z,5.8
2023-12-16T21:51:26.137Z,5.8
2023-12-16T21:54:26.148Z,5.8
2023-12-16T21:57:26.124Z,5.8
2023-12-16T22:00:26.184Z,5.8
2023-12-16T22:03:26.208Z,5.8
2023-12-16T22:06:26.186Z,5.8
2023-12-16T22:09:26.282Z,5.8
2023-12-16T22:12:26.133Z,5.8
2023-12-16T22:15:26.148Z,5.8
2023-12-16T22:18:27.601Z,5.8
2023-12-16T22:21:26.145Z,5.8
2023-12-16T22:24:26.144Z,5.8
2023-12-16T22:27:26.166Z,5.8
2023-12-16T22:30:26.222Z,5.8
2023-12-16T22:33:26.215Z,5.8
2023-12-16T22:36:26.160Z,5.8
2023-12-16T22:39:26.182Z,5.8
2023-12-16T22:42:26.176Z,5.8
2023-12-16T22:45:26.192Z,5.8
2023-12-16T22:48:26.349Z,5.8
2023-12-16T22:51:26.248Z,5.8
2023-12-16T22:54:26.166Z,5.9
2023-12-16T22:57:26.175Z,5.9
2023-12-16T23:00:26.173Z,5.8
2023-12-16T23:03:26.196Z,5.9
2023-12-16T23:06:26.203Z,5.8
2023-12-16T23:09:26.178Z,5.9
2023-12-16T23:12:26.193Z,5.9
2023-12-16T23:15:26.267Z,5.9
2023-12-16T23:18:26.296Z,5.9
2023-12-16T23:21:26.256Z,5.9
2023-12-16T23:24:26.205Z,5.9
2023-12-16T23:27:26.205Z,5.9
2023-12-16T23:30:26.286Z,5.9
2023-12-16T23:33:26.307Z,5.9
2023-12-16T23:36:26.254Z,5.9
2023-12-16T23:39:26.257Z,5.9
2023-12-16T23:42:26.220Z,5.9
2023-12-16T23:45:26.440Z,5.9
2023-12-16T23:48:26.321Z,5.9
2023-12-16T23:51:26.248Z,5.9
2023-12-16T23:54:26.310Z,5.9
2023-12-16T23:57:26.334Z,5.9
